sensor_id;sensor_type;location;lat;lon;timestamp;P1;durP1;ratioP1;P2;durP2;ratioP2
46322;SDS011;32044;52.386;13.278;2023-02-15T00:01:42;58.38;;;27.98;;
46322;SDS011;32044;52.386;13.278;2023-02-15T00:04:11;58.45;;;25.42;;
46322;SDS011;32044;52.386;13.278;2023-02-15T00:06:39;55.95;;;26.35;;
46322;SDS011;32044;52.386;13.278;2023-02-15T00:09:08;54.45;;;25.45;;
46322;SDS011;32044;52.386;13.278;2023-02-15T00:11:37;53.42;;;26.20;;
46322;SDS011;32044;52.386;13.278;2023-02-15T00:14:09;45.97;;;23.40;;
46322;SDS011;32044;52.386;13.278;2023-02-15T00:16:38;50.00;;;25.35;;
46322;SDS011;32044;52.386;13.278;2023-02-15T00:19:06;53.58;;;26.63;;
46322;SDS011;32044;52.386;13.278;2023-02-15T00:21:34;51.88;;;25.48;;
46322;SDS011;32044;52.386;13.278;2023-02-15T00:24:05;56.53;;;25.52;;
46322;SDS011;32044;52.386;13.278;2023-02-15T00:26:33;51.20;;;24.27;;
46322;SDS011;32044;52.386;13.278;2023-02-15T00:29:03;51.05;;;25.20;;
46322;SDS011;32044;52.386;13.278;2023-02-15T00:31:31;55.58;;;25.00;;
46322;SDS011;32044;52.386;13.278;2023-02-15T00:34:01;53.67;;;24.75;;
46322;SDS011;32044;52.386;13.278;2023-02-15T00:36:29;53.03;;;26.02;;
46322;SDS011;32044;52.386;13.278;2023-02-15T00:38:56;55.03;;;24.92;;
46322;SDS011;32044;52.386;13.278;2023-02-15T00:41:24;51.38;;;24.35;;
46322;SDS011;32044;52.386;13.278;2023-02-15T00:43:51;49.78;;;24.48;;
46322;SDS011;32044;52.386;13.278;2023-02-15T00:46:20;48.63;;;22.80;;
46322;SDS011;32044;52.386;13.278;2023-02-15T00:48:48;55.17;;;24.58;;
46322;SDS011;32044;52.386;13.278;2023-02-15T00:51:15;58.63;;;25.02;;
46322;SDS011;32044;52.386;13.278;2023-02-15T00:53:43;58.03;;;27.10;;
46322;SDS011;32044;52.386;13.278;2023-02-15T00:56:11;55.92;;;26.63;;
46322;SDS011;32044;52.386;13.278;2023-02-15T00:58:38;50.88;;;24.70;;
46322;SDS011;32044;52.386;13.278;2023-02-15T01:01:06;47.47;;;24.52;;
46322;SDS011;32044;52.386;13.278;2023-02-15T01:03:37;46.08;;;24.58;;
46322;SDS011;32044;52.386;13.278;2023-02-15T01:06:07;45.97;;;21.65;;
46322;SDS011;32044;52.386;13.278;2023-02-15T01:08:35;36.88;;;18.48;;
46322;SDS011;32044;52.386;13.278;2023-02-15T01:11:03;36.17;;;18.83;;
46322;SDS011;32044;52.386;13.278;2023-02-15T01:13:31;49.00;;;22.13;;
46322;SDS011;32044;52.386;13.278;2023-02-15T01:15:59;47.17;;;22.17;;
46322;SDS011;32044;52.386;13.278;2023-02-15T01:18:27;42.38;;;20.58;;
46322;SDS011;32044;52.386;13.278;2023-02-15T01:20:56;42.15;;;20.17;;
46322;SDS011;32044;52.386;13.278;2023-02-15T01:23:23;41.10;;;20.10;;
46322;SDS011;32044;52.386;13.278;2023-02-15T01:25:51;46.83;;;22.17;;
46322;SDS011;32044;52.386;13.278;2023-02-15T01:28:18;52.55;;;23.23;;
46322;SDS011;32044;52.386;13.278;2023-02-15T01:30:46;47.50;;;23.35;;
46322;SDS011;32044;52.386;13.278;2023-02-15T01:33:14;48.35;;;22.35;;
46322;SDS011;32044;52.386;13.278;2023-02-15T01:35:44;47.05;;;22.65;;
46322;SDS011;32044;52.386;13.278;2023-02-15T01:38:14;45.45;;;20.02;;
46322;SDS011;32044;52.386;13.278;2023-02-15T01:40:41;41.20;;;21.27;;
46322;SDS011;32044;52.386;13.278;2023-02-15T01:43:09;42.83;;;21.73;;
46322;SDS011;32044;52.386;13.278;2023-02-15T01:45:38;46.00;;;21.45;;
46322;SDS011;32044;52.386;13.278;2023-02-15T01:48:08;45.08;;;23.05;;
46322;SDS011;32044;52.386;13.278;2023-02-15T01:50:47;43.63;;;20.92;;
46322;SDS011;32044;52.386;13.278;2023-02-15T01:53:19;38.92;;;18.40;;
46322;SDS011;32044;52.386;13.278;2023-02-15T01:55:50;49.60;;;23.33;;
46322;SDS011;32044;52.386;13.278;2023-02-15T01:58:19;52.17;;;24.30;;
46322;SDS011;32044;52.386;13.278;2023-02-15T02:00:48;47.50;;;24.83;;
46322;SDS011;32044;52.386;13.278;2023-02-15T02:03:15;52.28;;;25.02;;
46322;SDS011;32044;52.386;13.278;2023-02-15T02:05:43;55.35;;;24.55;;
46322;SDS011;32044;52.386;13.278;2023-02-15T02:08:10;53.90;;;25.40;;
46322;SDS011;32044;52.386;13.278;2023-02-15T02:10:39;54.50;;;25.60;;
46322;SDS011;32044;52.386;13.278;2023-02-15T02:13:07;52.60;;;26.08;;
46322;SDS011;32044;52.386;13.278;2023-02-15T02:15:37;53.67;;;25.83;;
46322;SDS011;32044;52.386;13.278;2023-02-15T02:18:12;51.60;;;24.88;;
46322;SDS011;32044;52.386;13.278;2023-02-15T02:23:57;55.17;;;25.15;;
46322;SDS011;32044;52.386;13.278;2023-02-15T02:29:44;48.90;;;23.58;;
46322;SDS011;32044;52.386;13.278;2023-02-15T02:35:15;47.75;;;24.02;;
46322;SDS011;32044;52.386;13.278;2023-02-15T02:37:48;43.03;;;19.92;;
46322;SDS011;32044;52.386;13.278;2023-02-15T02:40:19;49.03;;;24.17;;
46322;SDS011;32044;52.386;13.278;2023-02-15T02:42:54;51.67;;;24.73;;
46322;SDS011;32044;52.386;13.278;2023-02-15T02:45:24;58.20;;;26.90;;
46322;SDS011;32044;52.386;13.278;2023-02-15T02:47:54;58.97;;;27.92;;
46322;SDS011;32044;52.386;13.278;2023-02-15T02:50:26;63.47;;;29.27;;
46322;SDS011;32044;52.386;13.278;2023-02-15T02:52:56;51.28;;;23.08;;
46322;SDS011;32044;52.386;13.278;2023-02-15T02:55:25;70.10;;;31.63;;
46322;SDS011;32044;52.386;13.278;2023-02-15T02:57:57;68.53;;;29.67;;
46322;SDS011;32044;52.386;13.278;2023-02-15T03:00:29;62.00;;;29.30;;
46322;SDS011;32044;52.386;13.278;2023-02-15T03:02:59;60.97;;;27.20;;
46322;SDS011;32044;52.386;13.278;2023-02-15T03:05:32;55.38;;;25.95;;
46322;SDS011;32044;52.386;13.278;2023-02-15T03:08:01;48.55;;;24.25;;
46322;SDS011;32044;52.386;13.278;2023-02-15T03:10:32;55.17;;;24.43;;
46322;SDS011;32044;52.386;13.278;2023-02-15T03:13:01;65.20;;;29.20;;
46322;SDS011;32044;52.386;13.278;2023-02-15T03:15:30;65.95;;;29.98;;
46322;SDS011;32044;52.386;13.278;2023-02-15T03:18:13;64.93;;;29.10;;
46322;SDS011;32044;52.386;13.278;2023-02-15T03:20:42;68.85;;;29.95;;
46322;SDS011;32044;52.386;13.278;2023-02-15T03:23:12;70.63;;;30.92;;
46322;SDS011;32044;52.386;13.278;2023-02-15T03:25:41;64.32;;;28.48;;
46322;SDS011;32044;52.386;13.278;2023-02-15T03:28:13;58.85;;;26.45;;
46322;SDS011;32044;52.386;13.278;2023-02-15T03:30:43;58.83;;;26.60;;
46322;SDS011;32044;52.386;13.278;2023-02-15T03:33:12;59.00;;;26.42;;
46322;SDS011;32044;52.386;13.278;2023-02-15T03:35:43;56.97;;;25.88;;
46322;SDS011;32044;52.386;13.278;2023-02-15T03:38:17;63.50;;;26.92;;
46322;SDS011;32044;52.386;13.278;2023-02-15T03:40:47;64.18;;;26.85;;
46322;SDS011;32044;52.386;13.278;2023-02-15T03:43:35;72.70;;;30.02;;
46322;SDS011;32044;52.386;13.278;2023-02-15T03:46:08;77.57;;;34.08;;
46322;SDS011;32044;52.386;13.278;2023-02-15T03:48:40;98.18;;;37.70;;
46322;SDS011;32044;52.386;13.278;2023-02-15T03:51:12;107.70;;;39.55;;
46322;SDS011;32044;52.386;13.278;2023-02-15T03:54:03;109.82;;;43.20;;
46322;SDS011;32044;52.386;13.278;2023-02-15T03:56:33;119.82;;;43.40;;
46322;SDS011;32044;52.386;13.278;2023-02-15T03:59:01;109.95;;;43.33;;
46322;SDS011;32044;52.386;13.278;2023-02-15T04:01:48;143.95;;;50.83;;
46322;SDS011;32044;52.386;13.278;2023-02-15T04:04:26;157.52;;;52.15;;
46322;SDS011;32044;52.386;13.278;2023-02-15T04:06:58;166.18;;;51.83;;
46322;SDS011;32044;52.386;13.278;2023-02-15T04:09:26;153.32;;;51.42;;
46322;SDS011;32044;52.386;13.278;2023-02-15T04:12:11;167.40;;;53.00;;
46322;SDS011;32044;52.386;13.278;2023-02-15T04:14:38;140.30;;;49.45;;
46322;SDS011;32044;52.386;13.278;2023-02-15T04:17:26;149.40;;;50.90;;
46322;SDS011;32044;52.386;13.278;2023-02-15T04:19:53;138.73;;;47.15;;
46322;SDS011;32044;52.386;13.278;2023-02-15T04:22:40;134.75;;;46.75;;
46322;SDS011;32044;52.386;13.278;2023-02-15T04:25:25;150.50;;;49.60;;
46322;SDS011;32044;52.386;13.278;2023-02-15T04:27:53;152.95;;;48.47;;
46322;SDS011;32044;52.386;13.278;2023-02-15T04:30:22;139.57;;;47.17;;
46322;SDS011;32044;52.386;13.278;2023-02-15T04:32:50;149.05;;;48.35;;
46322;SDS011;32044;52.386;13.278;2023-02-15T04:35:18;165.35;;;51.70;;
46322;SDS011;32044;52.386;13.278;2023-02-15T04:37:47;176.35;;;55.17;;
46322;SDS011;32044;52.386;13.278;2023-02-15T04:40:14;189.32;;;53.60;;
46322;SDS011;32044;52.386;13.278;2023-02-15T04:42:46;189.48;;;56.42;;
46322;SDS011;32044;52.386;13.278;2023-02-15T04:45:14;203.02;;;58.15;;
46322;SDS011;32044;52.386;13.278;2023-02-15T04:47:42;175.45;;;52.95;;
46322;SDS011;32044;52.386;13.278;2023-02-15T04:50:09;188.57;;;57.28;;
46322;SDS011;32044;52.386;13.278;2023-02-15T04:52:37;187.13;;;54.58;;
46322;SDS011;32044;52.386;13.278;2023-02-15T04:55:06;199.77;;;56.20;;
46322;SDS011;32044;52.386;13.278;2023-02-15T04:57:34;203.95;;;56.53;;
46322;SDS011;32044;52.386;13.278;2023-02-15T05:00:02;205.65;;;57.50;;
46322;SDS011;32044;52.386;13.278;2023-02-15T05:02:29;206.40;;;57.53;;
46322;SDS011;32044;52.386;13.278;2023-02-15T05:04:57;217.10;;;61.15;;
46322;SDS011;32044;52.386;13.278;2023-02-15T05:07:24;217.00;;;59.92;;
46322;SDS011;32044;52.386;13.278;2023-02-15T05:09:52;279.95;;;66.40;;
46322;SDS011;32044;52.386;13.278;2023-02-15T05:12:20;307.30;;;70.32;;
46322;SDS011;32044;52.386;13.278;2023-02-15T05:14:48;519.17;;;77.07;;
46322;SDS011;32044;52.386;13.278;2023-02-15T05:17:15;502.15;;;75.22;;
46322;SDS011;32044;52.386;13.278;2023-02-15T05:19:43;666.15;;;79.68;;
46322;SDS011;32044;52.386;13.278;2023-02-15T05:22:10;411.33;;;74.00;;
46322;SDS011;32044;52.386;13.278;2023-02-15T05:24:38;668.60;;;84.43;;
46322;SDS011;32044;52.386;13.278;2023-02-15T05:27:24;876.95;;;93.60;;
46322;SDS011;32044;52.386;13.278;2023-02-15T05:30:10;813.42;;;95.50;;
46322;SDS011;32044;52.386;13.278;2023-02-15T05:32:40;750.00;;;91.90;;
46322;SDS011;32044;52.386;13.278;2023-02-15T05:35:07;840.65;;;92.45;;
46322;SDS011;32044;52.386;13.278;2023-02-15T05:37:38;561.00;;;79.00;;
46322;SDS011;32044;52.386;13.278;2023-02-15T05:40:06;487.83;;;73.88;;
46322;SDS011;32044;52.386;13.278;2023-02-15T05:42:36;425.92;;;72.65;;
46322;SDS011;32044;52.386;13.278;2023-02-15T05:45:03;802.05;;;84.00;;
46322;SDS011;32044;52.386;13.278;2023-02-15T05:47:31;474.95;;;75.13;;
46322;SDS011;32044;52.386;13.278;2023-02-15T05:49:59;662.83;;;80.50;;
46322;SDS011;32044;52.386;13.278;2023-02-15T05:52:26;385.65;;;65.03;;
46322;SDS011;32044;52.386;13.278;2023-02-15T05:54:54;639.13;;;79.90;;
46322;SDS011;32044;52.386;13.278;2023-02-15T05:57:21;640.97;;;77.43;;
46322;SDS011;32044;52.386;13.278;2023-02-15T05:59:50;332.60;;;57.45;;
46322;SDS011;32044;52.386;13.278;2023-02-15T06:02:18;644.40;;;78.25;;
46322;SDS011;32044;52.386;13.278;2023-02-15T06:04:45;647.08;;;73.28;;
46322;SDS011;32044;52.386;13.278;2023-02-15T06:07:13;724.38;;;81.75;;
46322;SDS011;32044;52.386;13.278;2023-02-15T06:09:40;457.65;;;65.25;;
46322;SDS011;32044;52.386;13.278;2023-02-15T06:12:08;613.40;;;72.97;;
46322;SDS011;32044;52.386;13.278;2023-02-15T06:14:35;484.42;;;66.10;;
46322;SDS011;32044;52.386;13.278;2023-02-15T06:17:05;660.65;;;75.55;;
46322;SDS011;32044;52.386;13.278;2023-02-15T06:19:32;533.95;;;68.57;;
46322;SDS011;32044;52.386;13.278;2023-02-15T06:22:00;423.63;;;61.33;;
46322;SDS011;32044;52.386;13.278;2023-02-15T06:24:27;474.67;;;69.93;;
46322;SDS011;32044;52.386;13.278;2023-02-15T06:26:55;707.53;;;80.05;;
46322;SDS011;32044;52.386;13.278;2023-02-15T06:29:22;706.38;;;82.00;;
46322;SDS011;32044;52.386;13.278;2023-02-15T06:31:49;184.25;;;50.78;;
46322;SDS011;32044;52.386;13.278;2023-02-15T06:34:19;613.22;;;80.65;;
46322;SDS011;32044;52.386;13.278;2023-02-15T06:36:46;706.25;;;88.57;;
46322;SDS011;32044;52.386;13.278;2023-02-15T06:39:13;559.42;;;76.35;;
46322;SDS011;32044;52.386;13.278;2023-02-15T06:41:41;348.60;;;60.08;;
46322;SDS011;32044;52.386;13.278;2023-02-15T06:44:08;473.63;;;69.45;;
46322;SDS011;32044;52.386;13.278;2023-02-15T06:46:36;423.50;;;66.25;;
46322;SDS011;32044;52.386;13.278;2023-02-15T06:49:04;559.88;;;71.90;;
46322;SDS011;32044;52.386;13.278;2023-02-15T06:51:32;579.15;;;74.32;;
46322;SDS011;32044;52.386;13.278;2023-02-15T06:54:00;492.48;;;68.90;;
46322;SDS011;32044;52.386;13.278;2023-02-15T06:56:28;208.85;;;53.53;;
46322;SDS011;32044;52.386;13.278;2023-02-15T06:58:56;481.98;;;72.55;;
46322;SDS011;32044;52.386;13.278;2023-02-15T07:01:24;365.10;;;66.28;;
46322;SDS011;32044;52.386;13.278;2023-02-15T07:03:51;609.38;;;77.15;;
46322;SDS011;32044;52.386;13.278;2023-02-15T07:06:19;602.30;;;78.20;;
46322;SDS011;32044;52.386;13.278;2023-02-15T07:08:48;215.75;;;55.42;;
46322;SDS011;32044;52.386;13.278;2023-02-15T07:11:15;441.75;;;70.78;;
46322;SDS011;32044;52.386;13.278;2023-02-15T07:14:00;498.80;;;73.15;;
46322;SDS011;32044;52.386;13.278;2023-02-15T07:16:27;377.58;;;62.30;;
46322;SDS011;32044;52.386;13.278;2023-02-15T07:18:55;411.50;;;65.80;;
46322;SDS011;32044;52.386;13.278;2023-02-15T07:21:23;580.47;;;76.63;;
46322;SDS011;32044;52.386;13.278;2023-02-15T07:23:52;439.55;;;66.65;;
46322;SDS011;32044;52.386;13.278;2023-02-15T07:26:19;596.20;;;70.90;;
46322;SDS011;32044;52.386;13.278;2023-02-15T07:28:47;436.33;;;62.00;;
46322;SDS011;32044;52.386;13.278;2023-02-15T07:31:14;488.30;;;62.53;;
46322;SDS011;32044;52.386;13.278;2023-02-15T07:33:42;428.35;;;63.75;;
46322;SDS011;32044;52.386;13.278;2023-02-15T07:36:10;470.17;;;60.70;;
46322;SDS011;32044;52.386;13.278;2023-02-15T07:38:38;240.90;;;50.50;;
46322;SDS011;32044;52.386;13.278;2023-02-15T07:41:09;483.77;;;60.42;;
46322;SDS011;32044;52.386;13.278;2023-02-15T07:43:38;355.95;;;51.45;;
46322;SDS011;32044;52.386;13.278;2023-02-15T07:46:07;471.92;;;58.20;;
46322;SDS011;32044;52.386;13.278;2023-02-15T07:48:45;382.35;;;52.13;;
46322;SDS011;32044;52.386;13.278;2023-02-15T07:51:13;484.15;;;57.35;;
46322;SDS011;32044;52.386;13.278;2023-02-15T07:53:42;378.13;;;49.75;;
46322;SDS011;32044;52.386;13.278;2023-02-15T07:56:11;450.45;;;58.53;;
46322;SDS011;32044;52.386;13.278;2023-02-15T07:58:40;397.45;;;54.33;;
46322;SDS011;32044;52.386;13.278;2023-02-15T08:01:22;528.67;;;58.53;;
46322;SDS011;32044;52.386;13.278;2023-02-15T08:03:51;377.63;;;53.03;;
46322;SDS011;32044;52.386;13.278;2023-02-15T08:06:19;245.07;;;46.22;;
46322;SDS011;32044;52.386;13.278;2023-02-15T08:08:48;137.80;;;39.67;;
46322;SDS011;32044;52.386;13.278;2023-02-15T08:11:18;424.45;;;54.55;;
46322;SDS011;32044;52.386;13.278;2023-02-15T08:13:55;311.77;;;46.25;;
46322;SDS011;32044;52.386;13.278;2023-02-15T08:16:26;387.30;;;52.70;;
46322;SDS011;32044;52.386;13.278;2023-02-15T08:18:56;303.52;;;48.05;;
46322;SDS011;32044;52.386;13.278;2023-02-15T08:21:25;392.38;;;52.47;;
46322;SDS011;32044;52.386;13.278;2023-02-15T08:23:53;462.50;;;57.95;;
46322;SDS011;32044;52.386;13.278;2023-02-15T08:26:23;292.10;;;50.25;;
46322;SDS011;32044;52.386;13.278;2023-02-15T08:28:51;206.57;;;47.08;;
46322;SDS011;32044;52.386;13.278;2023-02-15T08:31:19;354.20;;;51.95;;
46322;SDS011;32044;52.386;13.278;2023-02-15T08:33:47;300.23;;;47.78;;
46322;SDS011;32044;52.386;13.278;2023-02-15T08:36:16;320.00;;;49.97;;
46322;SDS011;32044;52.386;13.278;2023-02-15T08:38:44;328.52;;;47.65;;
46322;SDS011;32044;52.386;13.278;2023-02-15T08:41:13;287.25;;;47.67;;
46322;SDS011;32044;52.386;13.278;2023-02-15T08:43:43;304.13;;;49.17;;
46322;SDS011;32044;52.386;13.278;2023-02-15T08:46:11;233.65;;;44.63;;
46322;SDS011;32044;52.386;13.278;2023-02-15T08:48:39;244.38;;;48.00;;
46322;SDS011;32044;52.386;13.278;2023-02-15T08:51:07;250.18;;;47.00;;
46322;SDS011;32044;52.386;13.278;2023-02-15T08:53:38;210.80;;;35.65;;
46322;SDS011;32044;52.386;13.278;2023-02-15T08:56:06;278.05;;;49.63;;
46322;SDS011;32044;52.386;13.278;2023-02-15T08:58:34;250.52;;;50.35;;
46322;SDS011;32044;52.386;13.278;2023-02-15T09:01:08;155.02;;;40.58;;
46322;SDS011;32044;52.386;13.278;2023-02-15T09:03:37;273.05;;;42.47;;
46322;SDS011;32044;52.386;13.278;2023-02-15T09:06:04;212.90;;;42.63;;
46322;SDS011;32044;52.386;13.278;2023-02-15T09:08:32;246.35;;;44.35;;
46322;SDS011;32044;52.386;13.278;2023-02-15T09:11:10;234.38;;;43.88;;
46322;SDS011;32044;52.386;13.278;2023-02-15T09:13:39;250.98;;;46.05;;
46322;SDS011;32044;52.386;13.278;2023-02-15T09:16:07;145.27;;;42.55;;
46322;SDS011;32044;52.386;13.278;2023-02-15T09:18:37;203.70;;;48.63;;
46322;SDS011;32044;52.386;13.278;2023-02-15T09:21:06;177.57;;;43.17;;
46322;SDS011;32044;52.386;13.278;2023-02-15T09:23:35;158.10;;;42.92;;
46322;SDS011;32044;52.386;13.278;2023-02-15T09:26:04;261.88;;;45.70;;
46322;SDS011;32044;52.386;13.278;2023-02-15T09:28:32;148.30;;;42.65;;
46322;SDS011;32044;52.386;13.278;2023-02-15T09:31:04;146.15;;;40.92;;
46322;SDS011;32044;52.386;13.278;2023-02-15T09:33:38;163.80;;;45.65;;
46322;SDS011;32044;52.386;13.278;2023-02-15T09:36:14;157.57;;;44.55;;
46322;SDS011;32044;52.386;13.278;2023-02-15T09:38:42;161.35;;;42.20;;
46322;SDS011;32044;52.386;13.278;2023-02-15T09:41:17;143.90;;;44.13;;
46322;SDS011;32044;52.386;13.278;2023-02-15T09:43:53;156.32;;;43.72;;
46322;SDS011;32044;52.386;13.278;2023-02-15T09:46:30;130.57;;;43.05;;
46322;SDS011;32044;52.386;13.278;2023-02-15T09:49:03;130.82;;;41.50;;
46322;SDS011;32044;52.386;13.278;2023-02-15T09:51:38;121.03;;;43.38;;
46322;SDS011;32044;52.386;13.278;2023-02-15T09:54:24;128.02;;;45.30;;
46322;SDS011;32044;52.386;13.278;2023-02-15T09:57:00;133.93;;;43.03;;
46322;SDS011;32044;52.386;13.278;2023-02-15T09:59:34;116.65;;;43.00;;
46322;SDS011;32044;52.386;13.278;2023-02-15T10:02:10;110.43;;;41.13;;
46322;SDS011;32044;52.386;13.278;2023-02-15T10:04:50;114.40;;;40.15;;
46322;SDS011;32044;52.386;13.278;2023-02-15T10:07:28;105.95;;;41.85;;
46322;SDS011;32044;52.386;13.278;2023-02-15T10:10:11;130.75;;;46.13;;
46322;SDS011;32044;52.386;13.278;2023-02-15T10:12:51;121.57;;;43.65;;
46322;SDS011;32044;52.386;13.278;2023-02-15T10:15:28;106.88;;;41.17;;
46322;SDS011;32044;52.386;13.278;2023-02-15T10:18:09;96.32;;;38.20;;
46322;SDS011;32044;52.386;13.278;2023-02-15T10:20:46;98.03;;;40.08;;
46322;SDS011;32044;52.386;13.278;2023-02-15T10:23:23;100.78;;;40.30;;
46322;SDS011;32044;52.386;13.278;2023-02-15T10:25:59;84.90;;;35.08;;
46322;SDS011;32044;52.386;13.278;2023-02-15T10:28:29;91.68;;;38.78;;
46322;SDS011;32044;52.386;13.278;2023-02-15T10:31:04;96.82;;;38.10;;
46322;SDS011;32044;52.386;13.278;2023-02-15T10:33:41;93.00;;;35.70;;
46322;SDS011;32044;52.386;13.278;2023-02-15T10:36:11;80.70;;;35.78;;
46322;SDS011;32044;52.386;13.278;2023-02-15T10:38:47;91.45;;;37.60;;
46322;SDS011;32044;52.386;13.278;2023-02-15T10:41:23;83.05;;;36.42;;
46322;SDS011;32044;52.386;13.278;2023-02-15T10:44:17;83.95;;;36.17;;
46322;SDS011;32044;52.386;13.278;2023-02-15T10:46:55;78.97;;;35.47;;
46322;SDS011;32044;52.386;13.278;2023-02-15T10:49:39;82.53;;;36.58;;
46322;SDS011;32044;52.386;13.278;2023-02-15T10:52:17;79.97;;;36.78;;
46322;SDS011;32044;52.386;13.278;2023-02-15T10:54:54;78.63;;;36.08;;
46322;SDS011;32044;52.386;13.278;2023-02-15T10:57:31;85.65;;;38.97;;
46322;SDS011;32044;52.386;13.278;2023-02-15T11:00:05;83.43;;;36.33;;
46322;SDS011;32044;52.386;13.278;2023-02-15T11:02:41;79.07;;;36.53;;
46322;SDS011;32044;52.386;13.278;2023-02-15T11:05:22;79.03;;;36.60;;
46322;SDS011;32044;52.386;13.278;2023-02-15T11:07:54;68.10;;;35.88;;
46322;SDS011;32044;52.386;13.278;2023-02-15T11:10:25;72.65;;;34.30;;
46322;SDS011;32044;52.386;13.278;2023-02-15T11:12:56;77.70;;;37.28;;
46322;SDS011;32044;52.386;13.278;2023-02-15T11:15:25;67.03;;;33.00;;
46322;SDS011;32044;52.386;13.278;2023-02-15T11:17:58;70.53;;;33.65;;
46322;SDS011;32044;52.386;13.278;2023-02-15T11:20:31;68.82;;;33.35;;
46322;SDS011;32044;52.386;13.278;2023-02-15T11:23:01;67.03;;;35.08;;
46322;SDS011;32044;52.386;13.278;2023-02-15T11:25:30;65.53;;;33.90;;
46322;SDS011;32044;52.386;13.278;2023-02-15T11:27:59;65.32;;;33.35;;
46322;SDS011;32044;52.386;13.278;2023-02-15T11:33:03;65.33;;;32.63;;
46322;SDS011;32044;52.386;13.278;2023-02-15T11:35:36;60.03;;;33.05;;
46322;SDS011;32044;52.386;13.278;2023-02-15T11:38:06;69.72;;;35.38;;
46322;SDS011;32044;52.386;13.278;2023-02-15T11:40:40;59.78;;;31.83;;
46322;SDS011;32044;52.386;13.278;2023-02-15T11:43:12;68.13;;;33.58;;
46322;SDS011;32044;52.386;13.278;2023-02-15T11:48:12;57.38;;;29.02;;
46322;SDS011;32044;52.386;13.278;2023-02-15T11:50:42;59.67;;;33.28;;
46322;SDS011;32044;52.386;13.278;2023-02-15T11:53:11;58.75;;;30.67;;
46322;SDS011;32044;52.386;13.278;2023-02-15T11:55:40;54.65;;;30.00;;
46322;SDS011;32044;52.386;13.278;2023-02-15T11:58:10;56.47;;;30.92;;
46322;SDS011;32044;52.386;13.278;2023-02-15T12:00:49;53.70;;;29.77;;
46322;SDS011;32044;52.386;13.278;2023-02-15T12:03:18;56.10;;;30.15;;
46322;SDS011;32044;52.386;13.278;2023-02-15T12:05:53;53.30;;;30.85;;
46322;SDS011;32044;52.386;13.278;2023-02-15T12:08:23;50.83;;;29.02;;
46322;SDS011;32044;52.386;13.278;2023-02-15T12:10:57;47.35;;;28.25;;
46322;SDS011;32044;52.386;13.278;2023-02-15T12:13:26;51.47;;;28.02;;
46322;SDS011;32044;52.386;13.278;2023-02-15T12:15:54;56.80;;;30.75;;
46322;SDS011;32044;52.386;13.278;2023-02-15T12:21:12;46.60;;;25.48;;
46322;SDS011;32044;52.386;13.278;2023-02-15T12:23:43;44.65;;;26.23;;
46322;SDS011;32044;52.386;13.278;2023-02-15T12:26:15;43.97;;;24.92;;
46322;SDS011;32044;52.386;13.278;2023-02-15T12:28:50;44.17;;;26.13;;
46322;SDS011;32044;52.386;13.278;2023-02-15T12:31:21;42.45;;;25.08;;
46322;SDS011;32044;52.386;13.278;2023-02-15T12:33:52;40.40;;;23.55;;
46322;SDS011;32044;52.386;13.278;2023-02-15T12:36:22;38.03;;;23.15;;
46322;SDS011;32044;52.386;13.278;2023-02-15T12:39:02;41.55;;;24.80;;
46322;SDS011;32044;52.386;13.278;2023-02-15T12:41:44;39.90;;;24.25;;
46322;SDS011;32044;52.386;13.278;2023-02-15T12:44:15;39.33;;;22.20;;
46322;SDS011;32044;52.386;13.278;2023-02-15T12:46:55;35.50;;;21.10;;
46322;SDS011;32044;52.386;13.278;2023-02-15T12:49:24;41.28;;;20.55;;
46322;SDS011;32044;52.386;13.278;2023-02-15T12:51:54;32.63;;;21.25;;
46322;SDS011;32044;52.386;13.278;2023-02-15T12:54:27;36.45;;;20.85;;
46322;SDS011;32044;52.386;13.278;2023-02-15T12:56:57;46.05;;;21.95;;
46322;SDS011;32044;52.386;13.278;2023-02-15T12:59:24;39.70;;;22.35;;
46322;SDS011;32044;52.386;13.278;2023-02-15T13:01:52;32.60;;;21.60;;
46322;SDS011;32044;52.386;13.278;2023-02-15T13:04:22;31.33;;;19.73;;
46322;SDS011;32044;52.386;13.278;2023-02-15T13:06:51;33.65;;;19.95;;
46322;SDS011;32044;52.386;13.278;2023-02-15T13:09:25;29.52;;;19.70;;
46322;SDS011;32044;52.386;13.278;2023-02-15T13:11:56;32.17;;;19.50;;
46322;SDS011;32044;52.386;13.278;2023-02-15T13:14:25;34.90;;;20.73;;
46322;SDS011;32044;52.386;13.278;2023-02-15T13:16:57;30.52;;;19.20;;
46322;SDS011;32044;52.386;13.278;2023-02-15T13:19:26;30.75;;;19.17;;
46322;SDS011;32044;52.386;13.278;2023-02-15T13:21:57;31.30;;;20.10;;
46322;SDS011;32044;52.386;13.278;2023-02-15T13:24:28;31.25;;;19.42;;
46322;SDS011;32044;52.386;13.278;2023-02-15T13:26:57;29.30;;;19.52;;
46322;SDS011;32044;52.386;13.278;2023-02-15T13:29:39;29.48;;;19.05;;
46322;SDS011;32044;52.386;13.278;2023-02-15T13:32:12;27.25;;;18.42;;
46322;SDS011;32044;52.386;13.278;2023-02-15T13:34:50;35.55;;;19.45;;
46322;SDS011;32044;52.386;13.278;2023-02-15T13:37:21;28.58;;;17.98;;
46322;SDS011;32044;52.386;13.278;2023-02-15T13:40:00;28.50;;;17.23;;
46322;SDS011;32044;52.386;13.278;2023-02-15T13:42:30;28.75;;;17.55;;
46322;SDS011;32044;52.386;13.278;2023-02-15T13:45:07;27.77;;;16.60;;
46322;SDS011;32044;52.386;13.278;2023-02-15T13:47:44;25.35;;;15.88;;
46322;SDS011;32044;52.386;13.278;2023-02-15T13:50:19;27.95;;;17.42;;
46322;SDS011;32044;52.386;13.278;2023-02-15T13:52:57;27.60;;;16.63;;
46322;SDS011;32044;52.386;13.278;2023-02-15T13:55:32;24.45;;;16.00;;
46322;SDS011;32044;52.386;13.278;2023-02-15T13:58:15;23.02;;;16.15;;
46322;SDS011;32044;52.386;13.278;2023-02-15T14:00:52;22.17;;;15.13;;
46322;SDS011;32044;52.386;13.278;2023-02-15T14:03:44;24.13;;;15.43;;
46322;SDS011;32044;52.386;13.278;2023-02-15T14:06:22;23.95;;;15.00;;
46322;SDS011;32044;52.386;13.278;2023-02-15T14:09:01;22.40;;;14.30;;
46322;SDS011;32044;52.386;13.278;2023-02-15T14:11:38;24.42;;;15.57;;
46322;SDS011;32044;52.386;13.278;2023-02-15T14:14:18;23.90;;;14.75;;
46322;SDS011;32044;52.386;13.278;2023-02-15T14:17:01;24.13;;;13.70;;
46322;SDS011;32044;52.386;13.278;2023-02-15T14:19:35;19.50;;;12.23;;
46322;SDS011;32044;52.386;13.278;2023-02-15T14:22:07;17.08;;;12.80;;
46322;SDS011;32044;52.386;13.278;2023-02-15T14:24:41;18.23;;;12.20;;
46322;SDS011;32044;52.386;13.278;2023-02-15T14:27:15;15.93;;;11.45;;
46322;SDS011;32044;52.386;13.278;2023-02-15T14:29:49;14.60;;;10.73;;
46322;SDS011;32044;52.386;13.278;2023-02-15T14:32:20;16.08;;;10.65;;
46322;SDS011;32044;52.386;13.278;2023-02-15T14:34:52;14.90;;;11.00;;
46322;SDS011;32044;52.386;13.278;2023-02-15T14:37:23;15.20;;;10.20;;
46322;SDS011;32044;52.386;13.278;2023-02-15T14:39:58;12.68;;;9.68;;
46322;SDS011;32044;52.386;13.278;2023-02-15T14:42:48;15.10;;;10.70;;
46322;SDS011;32044;52.386;13.278;2023-02-15T14:45:21;14.68;;;10.48;;